sensor_id;sensor_type;location;lat;lon;timestamp;P1;P2;P0
61592;PMS5003;70568;51.378;-1.342;2023-07-22T00:01:50;3;3;
61592;PMS5003;70568;51.378;-1.342;2023-07-22T00:04:16;8;6;
61592;PMS5003;70568;51.378;-1.342;2023-07-22T00:06:43;5;4;
61592;PMS5003;70568;51.378;-1.342;2023-07-22T00:09:09;3;3;
61592;PMS5003;70568;51.378;-1.342;2023-07-22T00:11:36;6;5;
61592;PMS5003;70568;51.378;-1.342;2023-07-22T00:14:02;3;3;
61592;PMS5003;70568;51.378;-1.342;2023-07-22T00:16:29;5;5;
61592;PMS5003;70568;51.378;-1.342;2023-07-22T00:18:55;5;5;
61592;PMS5003;70568;51.378;-1.342;2023-07-22T00:21:22;4;3;
61592;PMS5003;70568;51.378;-1.342;2023-07-22T00:23:48;5;5;
61592;PMS5003;70568;51.378;-1.342;2023-07-22T00:26:15;4;4;
61592;PMS5003;70568;51.378;-1.342;2023-07-22T00:28:42;6;5;
61592;PMS5003;70568;51.378;-1.342;2023-07-22T00:31:08;4;4;
61592;PMS5003;70568;51.378;-1.342;2023-07-22T00:33:35;4;4;
61592;PMS5003;70568;51.378;-1.342;2023-07-22T00:36:02;3;3;
61592;PMS5003;70568;51.378;-1.342;2023-07-22T00:38:29;3;3;
61592;PMS5003;70568;51.378;-1.342;2023-07-22T00:40:56;4;3;
61592;PMS5003;70568;51.378;-1.342;2023-07-22T00:43:22;3;3;
61592;PMS5003;70568;51.378;-1.342;2023-07-22T00:45:49;5;4;
61592;PMS5003;70568;51.378;-1.342;2023-07-22T00:48:16;5;5;
61592;PMS5003;70568;51.378;-1.342;2023-07-22T00:50:43;6;6;
61592;PMS5003;70568;51.378;-1.342;2023-07-22T00:53:10;4;4;
61592;PMS5003;70568;51.378;-1.342;2023-07-22T00:55:37;5;5;
61592;PMS5003;70568;51.378;-1.342;2023-07-22T00:58:06;5;4;
61592;PMS5003;70568;51.378;-1.342;2023-07-22T01:00:33;4;4;
61592;PMS5003;70568;51.378;-1.342;2023-07-22T01:03:00;3;3;
61592;PMS5003;70568;51.378;-1.342;2023-07-22T01:05:27;6;5;
61592;PMS5003;70568;51.378;-1.342;2023-07-22T01:07:54;5;5;
61592;PMS5003;70568;51.378;-1.342;2023-07-22T01:10:22;4;4;
61592;PMS5003;70568;51.378;-1.342;2023-07-22T01:12:49;6;6;
61592;PMS5003;70568;51.378;-1.342;2023-07-22T01:15:15;5;5;
61592;PMS5003;70568;51.378;-1.342;2023-07-22T01:17:43;6;5;
61592;PMS5003;70568;51.378;-1.342;2023-07-22T01:20:10;5;5;
61592;PMS5003;70568;51.378;-1.342;2023-07-22T01:22:38;6;6;
61592;PMS5003;70568;51.378;-1.342;2023-07-22T01:25:07;4;4;
61592;PMS5003;70568;51.378;-1.342;2023-07-22T01:27:35;3;3;
61592;PMS5003;70568;51.378;-1.342;2023-07-22T01:30:02;6;5;
61592;PMS5003;70568;51.378;-1.342;2023-07-22T01:32:29;4;4;
61592;PMS5003;70568;51.378;-1.342;2023-07-22T01:34:56;5;5;
61592;PMS5003;70568;51.378;-1.342;2023-07-22T01:37:22;4;4;
61592;PMS5003;70568;51.378;-1.342;2023-07-22T01:39:49;5;3;
61592;PMS5003;70568;51.378;-1.342;2023-07-22T01:42:16;7;6;
61592;PMS5003;70568;51.378;-1.342;2023-07-22T01:44:43;7;6;
61592;PMS5003;70568;51.378;-1.342;2023-07-22T01:47:10;6;6;
61592;PMS5003;70568;51.378;-1.342;2023-07-22T01:49:36;7;7;
61592;PMS5003;70568;51.378;-1.342;2023-07-22T01:52:03;6;6;
61592;PMS5003;70568;51.378;-1.342;2023-07-22T01:54:30;8;8;
61592;PMS5003;70568;51.378;-1.342;2023-07-22T01:56:56;5;5;
61592;PMS5003;70568;51.378;-1.342;2023-07-22T01:59:23;6;6;
61592;PMS5003;70568;51.378;-1.342;2023-07-22T02:01:50;7;7;
61592;PMS5003;70568;51.378;-1.342;2023-07-22T02:04:17;5;5;
61592;PMS5003;70568;51.378;-1.342;2023-07-22T02:06:43;8;7;
61592;PMS5003;70568;51.378;-1.342;2023-07-22T02:09:09;5;5;
61592;PMS5003;70568;51.378;-1.342;2023-07-22T02:11:36;7;6;
61592;PMS5003;70568;51.378;-1.342;2023-07-22T02:14:02;6;6;
61592;PMS5003;70568;51.378;-1.342;2023-07-22T02:16:29;6;5;
61592;PMS5003;70568;51.378;-1.342;2023-07-22T02:18:55;6;6;
61592;PMS5003;70568;51.378;-1.342;2023-07-22T02:21:22;4;4;
61592;PMS5003;70568;51.378;-1.342;2023-07-22T02:23:48;5;5;
61592;PMS5003;70568;51.378;-1.342;2023-07-22T02:26:15;5;5;
61592;PMS5003;70568;51.378;-1.342;2023-07-22T02:28:42;6;6;
61592;PMS5003;70568;51.378;-1.342;2023-07-22T02:31:09;5;4;
61592;PMS5003;70568;51.378;-1.342;2023-07-22T02:33:35;6;6;
61592;PMS5003;70568;51.378;-1.342;2023-07-22T02:36:02;6;5;
61592;PMS5003;70568;51.378;-1.342;2023-07-22T02:38:29;6;6;
61592;PMS5003;70568;51.378;-1.342;2023-07-22T02:41:01;6;5;
61592;PMS5003;70568;51.378;-1.342;2023-07-22T02:43:28;5;5;
61592;PMS5003;70568;51.378;-1.342;2023-07-22T02:45:54;5;5;
61592;PMS5003;70568;51.378;-1.342;2023-07-22T02:48:21;6;6;
61592;PMS5003;70568;51.378;-1.342;2023-07-22T02:50:47;5;5;
61592;PMS5003;70568;51.378;-1.342;2023-07-22T02:53:14;6;5;
61592;PMS5003;70568;51.378;-1.342;2023-07-22T02:55:40;5;5;
61592;PMS5003;70568;51.378;-1.342;2023-07-22T02:58:07;4;4;
61592;PMS5003;70568;51.378;-1.342;2023-07-22T03:00:33;6;6;
61592;PMS5003;70568;51.378;-1.342;2023-07-22T03:03:00;5;4;
61592;PMS5003;70568;51.378;-1.342;2023-07-22T03:05:27;5;5;
61592;PMS5003;70568;51.378;-1.342;2023-07-22T03:07:54;5;5;
61592;PMS5003;70568;51.378;-1.342;2023-07-22T03:10:22;4;4;
61592;PMS5003;70568;51.378;-1.342;2023-07-22T03:12:49;4;4;
61592;PMS5003;70568;51.378;-1.342;2023-07-22T03:15:15;4;4;
61592;PMS5003;70568;51.378;-1.342;2023-07-22T03:17:42;4;4;
61592;PMS5003;70568;51.378;-1.342;2023-07-22T03:20:09;6;4;
61592;PMS5003;70568;51.378;-1.342;2023-07-22T03:22:36;7;5;
61592;PMS5003;70568;51.378;-1.342;2023-07-22T03:25:02;6;6;
61592;PMS5003;70568;51.378;-1.342;2023-07-22T03:27:29;7;6;
61592;PMS5003;70568;51.378;-1.342;2023-07-22T03:29:56;4;4;
61592;PMS5003;70568;51.378;-1.342;2023-07-22T03:32:22;5;4;
61592;PMS5003;70568;51.378;-1.342;2023-07-22T03:34:49;5;4;
61592;PMS5003;70568;51.378;-1.342;2023-07-22T03:37:15;5;4;
61592;PMS5003;70568;51.378;-1.342;2023-07-22T03:39:42;4;4;
61592;PMS5003;70568;51.378;-1.342;2023-07-22T03:42:08;5;5;
61592;PMS5003;70568;51.378;-1.342;2023-07-22T03:44:35;5;5;
61592;PMS5003;70568;51.378;-1.342;2023-07-22T03:47:02;4;4;
61592;PMS5003;70568;51.378;-1.342;2023-07-22T03:49:29;6;6;
61592;PMS5003;70568;51.378;-1.342;2023-07-22T03:51:56;5;5;
61592;PMS5003;70568;51.378;-1.342;2023-07-22T03:54:22;4;4;
61592;PMS5003;70568;51.378;-1.342;2023-07-22T03:56:49;5;4;
61592;PMS5003;70568;51.378;-1.342;2023-07-22T03:59:15;5;5;
61592;PMS5003;70568;51.378;-1.342;2023-07-22T04:01:42;3;3;
61592;PMS5003;70568;51.378;-1.342;2023-07-22T04:04:08;3;3;
61592;PMS5003;70568;51.378;-1.342;2023-07-22T04:06:34;4;4;
61592;PMS5003;70568;51.378;-1.342;2023-07-22T04:09:01;4;4;
61592;PMS5003;70568;51.378;-1.342;2023-07-22T04:11:29;5;4;
61592;PMS5003;70568;51.378;-1.342;2023-07-22T04:13:56;6;6;
61592;PMS5003;70568;51.378;-1.342;2023-07-22T04:16:22;5;5;
61592;PMS5003;70568;51.378;-1.342;2023-07-22T04:18:49;5;5;
61592;PMS5003;70568;51.378;-1.342;2023-07-22T04:21:15;5;5;
61592;PMS5003;70568;51.378;-1.342;2023-07-22T04:23:42;4;4;
61592;PMS5003;70568;51.378;-1.342;2023-07-22T04:26:08;5;5;
61592;PMS5003;70568;51.378;-1.342;2023-07-22T04:28:35;5;5;
61592;PMS5003;70568;51.378;-1.342;2023-07-22T04:31:02;4;4;
61592;PMS5003;70568;51.378;-1.342;2023-07-22T04:33:29;5;5;
61592;PMS5003;70568;51.378;-1.342;2023-07-22T04:35:57;5;5;
61592;PMS5003;70568;51.378;-1.342;2023-07-22T04:38:26;3;3;
61592;PMS5003;70568;51.378;-1.342;2023-07-22T04:40:52;3;3;
61592;PMS5003;70568;51.378;-1.342;2023-07-22T04:43:19;5;5;
61592;PMS5003;70568;51.378;-1.342;2023-07-22T04:45:45;5;5;
61592;PMS5003;70568;51.378;-1.342;2023-07-22T04:48:12;5;5;
61592;PMS5003;70568;51.378;-1.342;2023-07-22T04:50:40;3;3;
61592;PMS5003;70568;51.378;-1.342;2023-07-22T04:53:06;5;5;
61592;PMS5003;70568;51.378;-1.342;2023-07-22T04:55:33;5;5;
61592;PMS5003;70568;51.378;-1.342;2023-07-22T04:58:00;5;5;
61592;PMS5003;70568;51.378;-1.342;2023-07-22T05:00:27;4;4;
61592;PMS5003;70568;51.378;-1.342;2023-07-22T05:02:53;5;5;
61592;PMS5003;70568;51.378;-1.342;2023-07-22T05:05:19;9;7;
61592;PMS5003;70568;51.378;-1.342;2023-07-22T05:07:46;6;4;
61592;PMS5003;70568;51.378;-1.342;2023-07-22T05:10:12;4;4;
61592;PMS5003;70568;51.378;-1.342;2023-07-22T05:12:39;5;5;
61592;PMS5003;70568;51.378;-1.342;2023-07-22T05:15:06;4;4;
61592;PMS5003;70568;51.378;-1.342;2023-07-22T05:17:34;5;4;
61592;PMS5003;70568;51.378;-1.342;2023-07-22T05:20:02;6;5;
61592;PMS5003;70568;51.378;-1.342;2023-07-22T05:22:29;5;5;
61592;PMS5003;70568;51.378;-1.342;2023-07-22T05:24:56;3;3;
61592;PMS5003;70568;51.378;-1.342;2023-07-22T05:27:22;4;4;
61592;PMS5003;70568;51.378;-1.342;2023-07-22T05:29:50;4;4;
61592;PMS5003;70568;51.378;-1.342;2023-07-22T05:32:17;4;3;
61592;PMS5003;70568;51.378;-1.342;2023-07-22T05:34:43;3;3;
61592;PMS5003;70568;51.378;-1.342;2023-07-22T05:37:10;3;3;
61592;PMS5003;70568;51.378;-1.342;2023-07-22T05:39:36;5;5;
61592;PMS5003;70568;51.378;-1.342;2023-07-22T05:42:03;5;4;
61592;PMS5003;70568;51.378;-1.342;2023-07-22T05:44:30;4;4;
61592;PMS5003;70568;51.378;-1.342;2023-07-22T05:46:56;4;3;
61592;PMS5003;70568;51.378;-1.342;2023-07-22T05:49:23;4;4;
61592;PMS5003;70568;51.378;-1.342;2023-07-22T05:51:50;5;4;
61592;PMS5003;70568;51.378;-1.342;2023-07-22T05:54:17;6;5;
61592;PMS5003;70568;51.378;-1.342;2023-07-22T05:56:43;4;4;
61592;PMS5003;70568;51.378;-1.342;2023-07-22T05:59:10;4;4;
61592;PMS5003;70568;51.378;-1.342;2023-07-22T06:01:36;2;2;
61592;PMS5003;70568;51.378;-1.342;2023-07-22T06:04:03;3;3;
61592;PMS5003;70568;51.378;-1.342;2023-07-22T06:06:31;5;5;
61592;PMS5003;70568;51.378;-1.342;2023-07-22T06:08:57;4;4;
61592;PMS5003;70568;51.378;-1.342;2023-07-22T06:11:24;5;5;
61592;PMS5003;70568;51.378;-1.342;2023-07-22T06:13:50;4;4;
61592;PMS5003;70568;51.378;-1.342;2023-07-22T06:16:17;6;4;
61592;PMS5003;70568;51.378;-1.342;2023-07-22T06:18:43;3;3;
61592;PMS5003;70568;51.378;-1.342;2023-07-22T06:21:10;5;4;
61592;PMS5003;70568;51.378;-1.342;2023-07-22T06:23:36;4;4;
61592;PMS5003;70568;51.378;-1.342;2023-07-22T06:26:03;5;4;
61592;PMS5003;70568;51.378;-1.342;2023-07-22T06:28:29;4;3;
61592;PMS5003;70568;51.378;-1.342;2023-07-22T06:30:56;4;4;
61592;PMS5003;70568;51.378;-1.342;2023-07-22T06:33:23;5;5;
61592;PMS5003;70568;51.378;-1.342;2023-07-22T06:35:49;4;4;
61592;PMS5003;70568;51.378;-1.342;2023-07-22T06:38:16;3;3;
61592;PMS5003;70568;51.378;-1.342;2023-07-22T06:40:42;4;4;
61592;PMS5003;70568;51.378;-1.342;2023-07-22T06:43:09;5;5;
61592;PMS5003;70568;51.378;-1.342;2023-07-22T06:45:35;5;4;
61592;PMS5003;70568;51.378;-1.342;2023-07-22T06:48:02;4;4;
61592;PMS5003;70568;51.378;-1.342;2023-07-22T06:50:29;4;4;
61592;PMS5003;70568;51.378;-1.342;2023-07-22T06:52:56;3;3;
61592;PMS5003;70568;51.378;-1.342;2023-07-22T06:55:22;5;5;
61592;PMS5003;70568;51.378;-1.342;2023-07-22T06:57:49;3;3;
61592;PMS5003;70568;51.378;-1.342;2023-07-22T07:00:15;4;4;
61592;PMS5003;70568;51.378;-1.342;2023-07-22T07:02:42;6;6;
61592;PMS5003;70568;51.378;-1.342;2023-07-22T07:05:09;5;5;
61592;PMS5003;70568;51.378;-1.342;2023-07-22T07:07:35;4;4;
61592;PMS5003;70568;51.378;-1.342;2023-07-22T07:10:02;4;4;
61592;PMS5003;70568;51.378;-1.342;2023-07-22T07:12:29;6;6;
61592;PMS5003;70568;51.378;-1.342;2023-07-22T07:14:56;4;4;
61592;PMS5003;70568;51.378;-1.342;2023-07-22T07:17:23;5;5;
61592;PMS5003;70568;51.378;-1.342;2023-07-22T07:19:49;5;5;
61592;PMS5003;70568;51.378;-1.342;2023-07-22T07:22:16;5;5;
61592;PMS5003;70568;51.378;-1.342;2023-07-22T07:24:43;6;5;
61592;PMS5003;70568;51.378;-1.342;2023-07-22T07:27:10;7;6;
61592;PMS5003;70568;51.378;-1.342;2023-07-22T07:29:36;7;7;
61592;PMS5003;70568;51.378;-1.342;2023-07-22T07:32:03;6;6;
61592;PMS5003;70568;51.378;-1.342;2023-07-22T07:34:30;4;4;
61592;PMS5003;70568;51.378;-1.342;2023-07-22T07:36:56;5;5;
61592;PMS5003;70568;51.378;-1.342;2023-07-22T07:39:23;6;5;
61592;PMS5003;70568;51.378;-1.342;2023-07-22T07:41:50;5;5;
61592;PMS5003;70568;51.378;-1.342;2023-07-22T07:44:16;6;6;
61592;PMS5003;70568;51.378;-1.342;2023-07-22T07:46:43;6;6;
61592;PMS5003;70568;51.378;-1.342;2023-07-22T07:49:10;5;5;
61592;PMS5003;70568;51.378;-1.342;2023-07-22T07:51:36;6;5;
61592;PMS5003;70568;51.378;-1.342;2023-07-22T07:54:03;7;7;
61592;PMS5003;70568;51.378;-1.342;2023-07-22T07:56:30;6;6;
61592;PMS5003;70568;51.378;-1.342;2023-07-22T07:58:56;4;4;
61592;PMS5003;70568;51.378;-1.342;2023-07-22T08:01:23;6;6;
61592;PMS5003;70568;51.378;-1.342;2023-07-22T08:03:49;6;5;
61592;PMS5003;70568;51.378;-1.342;2023-07-22T08:06:16;9;8;
61592;PMS5003;70568;51.378;-1.342;2023-07-22T08:08:43;6;6;
61592;PMS5003;70568;51.378;-1.342;2023-07-22T08:11:10;8;7;
61592;PMS5003;70568;51.378;-1.342;2023-07-22T08:13:40;5;4;
61592;PMS5003;70568;51.378;-1.342;2023-07-22T08:16:10;7;7;
61592;PMS5003;70568;51.378;-1.342;2023-07-22T08:18:39;5;5;
61592;PMS5003;70568;51.378;-1.342;2023-07-22T08:21:07;8;6;
61592;PMS5003;70568;51.378;-1.342;2023-07-22T08:23:34;11;10;
61592;PMS5003;70568;51.378;-1.342;2023-07-22T08:26:03;6;6;
61592;PMS5003;70568;51.378;-1.342;2023-07-22T08:28:30;7;6;
61592;PMS5003;70568;51.378;-1.342;2023-07-22T08:30:57;8;7;
61592;PMS5003;70568;51.378;-1.342;2023-07-22T08:33:25;6;6;
61592;PMS5003;70568;51.378;-1.342;2023-07-22T08:35:53;7;7;
61592;PMS5003;70568;51.378;-1.342;2023-07-22T08:38:20;9;8;
61592;PMS5003;70568;51.378;-1.342;2023-07-22T08:40:48;7;7;
61592;PMS5003;70568;51.378;-1.342;2023-07-22T08:43:16;9;8;
61592;PMS5003;70568;51.378;-1.342;2023-07-22T08:45:47;7;6;
61592;PMS5003;70568;51.378;-1.342;2023-07-22T08:48:16;11;10;
61592;PMS5003;70568;51.378;-1.342;2023-07-22T08:50:44;9;8;
61592;PMS5003;70568;51.378;-1.342;2023-07-22T08:53:12;6;6;
61592;PMS5003;70568;51.378;-1.342;2023-07-22T08:55:39;8;7;
61592;PMS5003;70568;51.378;-1.342;2023-07-22T08:58:08;7;6;
61592;PMS5003;70568;51.378;-1.342;2023-07-22T09:00:35;8;7;
61592;PMS5003;70568;51.378;-1.342;2023-07-22T09:03:03;8;7;
61592;PMS5003;70568;51.378;-1.342;2023-07-22T09:05:30;7;6;
61592;PMS5003;70568;51.378;-1.342;2023-07-22T09:07:58;8;7;
61592;PMS5003;70568;51.378;-1.342;2023-07-22T09:10:27;7;7;
61592;PMS5003;70568;51.378;-1.342;2023-07-22T09:12:54;5;5;
61592;PMS5003;70568;51.378;-1.342;2023-07-22T09:15:22;6;6;
61592;PMS5003;70568;51.378;-1.342;2023-07-22T09:17:49;9;8;
61592;PMS5003;70568;51.378;-1.342;2023-07-22T09:20:16;7;6;
61592;PMS5003;70568;51.378;-1.342;2023-07-22T09:22:43;8;8;
61592;PMS5003;70568;51.378;-1.342;2023-07-22T09:25:12;6;6;
61592;PMS5003;70568;51.378;-1.342;2023-07-22T09:27:41;7;7;
61592;PMS5003;70568;51.378;-1.342;2023-07-22T09:30:20;6;6;
61592;PMS5003;70568;51.378;-1.342;2023-07-22T09:32:50;7;7;
61592;PMS5003;70568;51.378;-1.342;2023-07-22T09:35:18;8;7;
61592;PMS5003;70568;51.378;-1.342;2023-07-22T09:37:45;9;9;
61592;PMS5003;70568;51.378;-1.342;2023-07-22T09:40:16;9;9;
61592;PMS5003;70568;51.378;-1.342;2023-07-22T09:42:45;8;8;
61592;PMS5003;70568;51.378;-1.342;2023-07-22T09:45:12;6;6;
61592;PMS5003;70568;51.378;-1.342;2023-07-22T09:47:40;6;5;
61592;PMS5003;70568;51.378;-1.342;2023-07-22T09:50:10;8;7;
61592;PMS5003;70568;51.378;-1.342;2023-07-22T09:52:42;7;7;
61592;PMS5003;70568;51.378;-1.342;2023-07-22T09:55:11;11;10;
61592;PMS5003;70568;51.378;-1.342;2023-07-22T09:57:38;8;7;
61592;PMS5003;70568;51.378;-1.342;2023-07-22T10:00:09;8;8;
61592;PMS5003;70568;51.378;-1.342;2023-07-22T10:02:37;7;7;
61592;PMS5003;70568;51.378;-1.342;2023-07-22T10:05:06;7;7;
61592;PMS5003;70568;51.378;-1.342;2023-07-22T10:07:38;10;10;
61592;PMS5003;70568;51.378;-1.342;2023-07-22T10:10:10;8;8;
61592;PMS5003;70568;51.378;-1.342;2023-07-22T10:12:37;7;6;
61592;PMS5003;70568;51.378;-1.342;2023-07-22T10:15:06;7;7;
61592;PMS5003;70568;51.378;-1.342;2023-07-22T10:17:34;8;7;
61592;PMS5003;70568;51.378;-1.342;2023-07-22T10:20:02;12;10;
61592;PMS5003;70568;51.378;-1.342;2023-07-22T10:22:29;7;7;
61592;PMS5003;70568;51.378;-1.342;2023-07-22T10:24:56;10;10;
61592;PMS5003;70568;51.378;-1.342;2023-07-22T10:27:25;10;10;
61592;PMS5003;70568;51.378;-1.342;2023-07-22T10:29:53;10;10;
61592;PMS5003;70568;51.378;-1.342;2023-07-22T10:32:21;11;11;
61592;PMS5003;70568;51.378;-1.342;2023-07-22T10:34:48;10;8;
61592;PMS5003;70568;51.378;-1.342;2023-07-22T10:37:17;14;13;
61592;PMS5003;70568;51.378;-1.342;2023-07-22T10:39:44;9;8;
61592;PMS5003;70568;51.378;-1.342;2023-07-22T10:42:16;10;10;
61592;PMS5003;70568;51.378;-1.342;2023-07-22T10:44:50;9;9;
61592;PMS5003;70568;51.378;-1.342;2023-07-22T10:47:29;12;11;
61592;PMS5003;70568;51.378;-1.342;2023-07-22T10:49:58;9;8;
61592;PMS5003;70568;51.378;-1.342;2023-07-22T10:52:40;9;9;
61592;PMS5003;70568;51.378;-1.342;2023-07-22T10:55:15;10;10;
61592;PMS5003;70568;51.378;-1.342;2023-07-22T10:57:50;12;9;
61592;PMS5003;70568;51.378;-1.342;2023-07-22T11:00:18;9;9;
61592;PMS5003;70568;51.378;-1.342;2023-07-22T11:02:46;9;9;
61592;PMS5003;70568;51.378;-1.342;2023-07-22T11:05:51;11;10;
61592;PMS5003;70568;51.378;-1.342;2023-07-22T11:08:34;10;10;
61592;PMS5003;70568;51.378;-1.342;2023-07-22T11:11:03;10;10;
61592;PMS5003;70568;51.378;-1.342;2023-07-22T11:13:30;11;11;
61592;PMS5003;70568;51.378;-1.342;2023-07-22T11:16:03;11;10;
61592;PMS5003;70568;51.378;-1.342;2023-07-22T11:18:37;8;7;
61592;PMS5003;70568;51.378;-1.342;2023-07-22T11:21:07;9;9;
61592;PMS5003;70568;51.378;-1.342;2023-07-22T11:23:33;12;12;
61592;PMS5003;70568;51.378;-1.342;2023-07-22T11:26:02;12;10;
61592;PMS5003;70568;51.378;-1.342;2023-07-22T11:28:30;14;14;
61592;PMS5003;70568;51.378;-1.342;2023-07-22T11:30:57;9;9;
61592;PMS5003;70568;51.378;-1.342;2023-07-22T11:33:23;12;11;
61592;PMS5003;70568;51.378;-1.342;2023-07-22T11:35:51;17;15;
61592;PMS5003;70568;51.378;-1.342;2023-07-22T11:38:18;10;9;
61592;PMS5003;70568;51.378;-1.342;2023-07-22T11:40:45;12;12;
61592;PMS5003;70568;51.378;-1.342;2023-07-22T11:43:13;10;9;
61592;PMS5003;70568;51.378;-1.342;2023-07-22T11:45:40;10;9;
61592;PMS5003;70568;51.378;-1.342;2023-07-22T11:48:09;11;11;
61592;PMS5003;70568;51.378;-1.342;2023-07-22T11:50:36;9;9;
61592;PMS5003;70568;51.378;-1.342;2023-07-22T11:53:03;12;11;
61592;PMS5003;70568;51.378;-1.342;2023-07-22T11:55:29;9;8;
61592;PMS5003;70568;51.378;-1.342;2023-07-22T11:57:56;11;10;
61592;PMS5003;70568;51.378;-1.342;2023-07-22T12:00:23;10;10;
61592;PMS5003;70568;51.378;-1.342;2023-07-22T12:02:50;8;7;
61592;PMS5003;70568;51.378;-1.342;2023-07-22T12:05:20;10;9;
61592;PMS5003;70568;51.378;-1.342;2023-07-22T12:07:47;10;8;
61592;PMS5003;70568;51.378;-1.342;2023-07-22T12:10:15;11;10;
61592;PMS5003;70568;51.378;-1.342;2023-07-22T12:12:42;13;12;
61592;PMS5003;70568;51.378;-1.342;2023-07-22T12:15:10;10;8;
61592;PMS5003;70568;51.378;-1.342;2023-07-22T12:17:46;11;10;
61592;PMS5003;70568;51.378;-1.342;2023-07-22T12:20:14;11;10;
61592;PMS5003;70568;51.378;-1.342;2023-07-22T12:22:41;13;12;
61592;PMS5003;70568;51.378;-1.342;2023-07-22T12:25:09;12;11;
61592;PMS5003;70568;51.378;-1.342;2023-07-22T12:27:36;13;13;
61592;PMS5003;70568;51.378;-1.342;2023-07-22T12:30:04;12;11;
61592;PMS5003;70568;51.378;-1.342;2023-07-22T12:32:32;14;13;
61592;PMS5003;70568;51.378;-1.342;2023-07-22T12:34:59;11;11;
61592;PMS5003;70568;51.378;-1.342;2023-07-22T12:37:26;12;12;
61592;PMS5003;70568;51.378;-1.342;2023-07-22T12:39:53;10;9;
61592;PMS5003;70568;51.378;-1.342;2023-07-22T12:42:20;12;12;
61592;PMS5003;70568;51.378;-1.342;2023-07-22T12:44:47;14;13;
61592;PMS5003;70568;51.378;-1.342;2023-07-22T12:47:13;13;12;
61592;PMS5003;70568;51.378;-1.342;2023-07-22T12:49:40;13;11;
61592;PMS5003;70568;51.378;-1.342;2023-07-22T12:52:07;16;16;
61592;PMS5003;70568;51.378;-1.342;2023-07-22T12:54:34;13;12;
61592;PMS5003;70568;51.378;-1.342;2023-07-22T12:57:01;11;11;
61592;PMS5003;70568;51.378;-1.342;2023-07-22T12:59:29;13;11;
61592;PMS5003;70568;51.378;-1.342;2023-07-22T13:01:56;13;12;
61592;PMS5003;70568;51.378;-1.342;2023-07-22T13:04:23;15;12;
61592;PMS5003;70568;51.378;-1.342;2023-07-22T13:06:50;8;8;
61592;PMS5003;70568;51.378;-1.342;2023-07-22T13:09:17;10;9;
61592;PMS5003;70568;51.378;-1.342;2023-07-22T13:11:43;11;10;
61592;PMS5003;70568;51.378;-1.342;2023-07-22T13:14:10;10;10;
61592;PMS5003;70568;51.378;-1.342;2023-07-22T13:16:37;13;11;
61592;PMS5003;70568;51.378;-1.342;2023-07-22T13:19:03;11;10;
61592;PMS5003;70568;51.378;-1.342;2023-07-22T13:21:30;11;10;
61592;PMS5003;70568;51.378;-1.342;2023-07-22T13:23:57;12;10;
61592;PMS5003;70568;51.378;-1.342;2023-07-22T13:26:23;12;11;
61592;PMS5003;70568;51.378;-1.342;2023-07-22T13:28:50;11;10;
61592;PMS5003;70568;51.378;-1.342;2023-07-22T13:31:19;12;11;
61592;PMS5003;70568;51.378;-1.342;2023-07-22T13:33:46;9;9;
61592;PMS5003;70568;51.378;-1.342;2023-07-22T13:36:12;11;11;
61592;PMS5003;70568;51.378;-1.342;2023-07-22T13:38:39;10;9;
61592;PMS5003;70568;51.378;-1.342;2023-07-22T13:41:06;13;12;
61592;PMS5003;70568;51.378;-1.342;2023-07-22T13:43:33;13;12;
61592;PMS5003;70568;51.378;-1.342;2023-07-22T13:46:00;10;9;
61592;PMS5003;70568;51.378;-1.342;2023-07-22T13:48:27;11;10;
61592;PMS5003;70568;51.378;-1.342;2023-07-22T13:50:54;9;9;
61592;PMS5003;70568;51.378;-1.342;2023-07-22T13:53:21;9;9;
61592;PMS5003;70568;51.378;-1.342;2023-07-22T13:55:48;8;8;
61592;PMS5003;70568;51.378;-1.342;2023-07-22T13:58:14;7;7;
61592;PMS5003;70568;51.378;-1.342;2023-07-22T14:00:41;9;9;
61592;PMS5003;70568;51.378;-1.342;2023-07-22T14:03:07;8;7;
61592;PMS5003;70568;51.378;-1.342;2023-07-22T14:05:33;8;8;
61592;PMS5003;70568;51.378;-1.342;2023-07-22T14:08:02;6;6;
61592;PMS5003;70568;51.378;-1.342;2023-07-22T14:10:29;8;7;
61592;PMS5003;70568;51.378;-1.342;2023-07-22T14:12:57;7;7;
61592;PMS5003;70568;51.378;-1.342;2023-07-22T14:15:23;8;8;
61592;PMS5003;70568;51.378;-1.342;2023-07-22T14:17:50;6;6;
61592;PMS5003;70568;51.378;-1.342;2023-07-22T14:20:16;8;6;
61592;PMS5003;70568;51.378;-1.342;2023-07-22T14:22:43;8;7;
61592;PMS5003;70568;51.378;-1.342;2023-07-22T14:25:09;7;6;
61592;PMS5003;70568;51.378;-1.342;2023-07-22T14:27:37;5;5;
61592;PMS5003;70568;51.378;-1.342;2023-07-22T14:30:05;5;5;
61592;PMS5003;70568;51.378;-1.342;2023-07-22T14:32:32;8;7;
61592;PMS5003;70568;51.378;-1.342;2023-07-22T14:34:59;7;7;
61592;PMS5003;70568;51.378;-1.342;2023-07-22T14:37:26;6;6;
61592;PMS5003;70568;51.378;-1.342;2023-07-22T14:39:53;5;5;
61592;PMS5003;70568;51.378;-1.342;2023-07-22T14:42:19;5;5;
61592;PMS5003;70568;51.378;-1.342;2023-07-22T14:44:45;7;7;
61592;PMS5003;70568;51.378;-1.342;2023-07-22T14:47:12;7;6;
61592;PMS5003;70568;51.378;-1.342;2023-07-22T14:49:38;5;5;
61592;PMS5003;70568;51.378;-1.342;2023-07-22T14:52:05;8;7;
61592;PMS5003;70568;51.378;-1.342;2023-07-22T14:54:33;6;5;
61592;PMS5003;70568;51.378;-1.342;2023-07-22T14:57:00;7;6;
61592;PMS5003;70568;51.378;-1.342;2023-07-22T14:59:27;6;6;
61592;PMS5003;70568;51.378;-1.342;2023-07-22T15:01:54;6;5;
61592;PMS5003;70568;51.378;-1.342;2023-07-22T15:04:20;4;4;
61592;PMS5003;70568;51.378;-1.342;2023-07-22T15:06:46;7;7;
61592;PMS5003;70568;51.378;-1.342;2023-07-22T15:09:13;8;8;
61592;PMS5003;70568;51.378;-1.342;2023-07-22T15:11:39;6;5;
61592;PMS5003;70568;51.378;-1.342;2023-07-22T15:14:06;6;6;
61592;PMS5003;70568;51.378;-1.342;2023-07-22T15:16:32;4;4;
61592;PMS5003;70568;51.378;-1.342;2023-07-22T15:19:00;4;3;
61592;PMS5003;70568;51.378;-1.342;2023-07-22T15:21:27;5;4;
61592;PMS5003;70568;51.378;-1.342;2023-07-22T15:23:53;5;5;
61592;PMS5003;70568;51.378;-1.342;2023-07-22T15:26:20;4;4;
61592;PMS5003;70568;51.378;-1.342;2023-07-22T15:28:47;5;5;
61592;PMS5003;70568;51.378;-1.342;2023-07-22T15:31:15;5;4;
61592;PMS5003;70568;51.378;-1.342;2023-07-22T15:33:43;3;3;
61592;PMS5003;70568;51.378;-1.342;2023-07-22T15:36:09;5;4;
61592;PMS5003;70568;51.378;-1.342;2023-07-22T15:38:35;5;4;
61592;PMS5003;70568;51.378;-1.342;2023-07-22T15:41:03;9;7;
61592;PMS5003;70568;51.378;-1.342;2023-07-22T15:43:30;5;5;
61592;PMS5003;70568;51.378;-1.342;2023-07-22T15:45:56;5;4;
61592;PMS5003;70568;51.378;-1.342;2023-07-22T15:48:23;6;6;
61592;PMS5003;70568;51.378;-1.342;2023-07-22T15:50:49;7;6;
61592;PMS5003;70568;51.378;-1.342;2023-07-22T15:53:17;6;5;
61592;PMS5003;70568;51.378;-1.342;2023-07-22T15:55:43;6;5;
61592;PMS5003;70568;51.378;-1.342;2023-07-22T15:58:10;4;4;
61592;PMS5003;70568;51.378;-1.342;2023-07-22T16:00:36;6;6;
61592;PMS5003;70568;51.378;-1.342;2023-07-22T16:03:03;4;4;
61592;PMS5003;70568;51.378;-1.342;2023-07-22T16:05:30;5;5;
61592;PMS5003;70568;51.378;-1.342;2023-07-22T16:07:56;4;4;
61592;PMS5003;70568;51.378;-1.342;2023-07-22T16:10:24;6;4;
61592;PMS5003;70568;51.378;-1.342;2023-07-22T16:12:51;2;2;
61592;PMS5003;70568;51.378;-1.342;2023-07-22T16:15:17;4;4;
61592;PMS5003;70568;51.378;-1.342;2023-07-22T16:17:44;4;4;
61592;PMS5003;70568;51.378;-1.342;2023-07-22T16:20:11;4;3;
61592;PMS5003;70568;51.378;-1.342;2023-07-22T16:22:37;3;3;
61592;PMS5003;70568;51.378;-1.342;2023-07-22T16:25:04;3;3;
61592;PMS5003;70568;51.378;-1.342;2023-07-22T16:27:31;6;5;
61592;PMS5003;70568;51.378;-1.342;2023-07-22T16:29:57;2;2;